Time;durP1;ratioP1;P1;durP2;ratioP2;P2;SDS_P1;SDS_P2;PMS_P1;PMS_P2;Temp;Humidity;BMP_temperature;BMP_pressure;BME280_temperature;BME280_humidity;BME280_pressure;Samples;Min_cycle;Max_cycle;Signal;HPM_P1;HPM_P2
2022/06/19 00:01:06;;;;;;;1.67;0.65;;;18.20;77.60;;;17.00;63.19;100475.16;9824246;29;96692;-85
2022/06/19 00:06:09;;;;;;;1.05;0.50;;;18.10;79.80;;;16.85;63.74;100469.97;9848883;29;97580;-85
2022/06/19 00:11:14;;;;;;;0.95;0.68;;;18.00;80.10;;;16.75;64.26;100466.84;9858150;29;96797;-85
2022/06/19 00:16:17;;;;;;;1.25;0.70;;;17.90;79.90;;;16.72;64.39;100469.06;9825294;29;96738;-85
2022/06/19 00:21:21;;;;;;;0.57;0.50;;;17.80;80.10;;;16.67;64.09;100468.81;9850458;29;96499;-85
2022/06/19 00:26:24;;;;;;;1.20;0.80;;;17.80;80.10;;;16.61;64.89;100467.75;9846332;29;96508;-85
2022/06/19 00:31:27;;;;;;;0.73;0.50;;;17.70;81.70;;;16.51;65.37;100461.97;9833828;29;96579;-85
2022/06/19 00:36:30;;;;;;;1.00;0.60;;;17.70;81.60;;;16.38;65.80;100465.41;9810948;29;98601;-85
2022/06/19 00:41:39;;;;;;;1.85;0.70;;;17.50;82.10;;;16.29;66.14;100464.75;9838779;29;98280;-85
2022/06/19 00:46:53;;;;;;;1.40;0.90;;;17.40;82.20;;;16.27;66.16;100453.41;9841916;29;96811;-85
2022/06/19 00:52:09;;;;;;;1.25;0.75;;;17.40;83.70;;;16.28;65.95;100448.84;9826795;29;97368;-85
2022/06/19 00:57:14;;;;;;;1.67;0.77;;;17.40;83.60;;;16.29;66.06;100456.69;9813396;29;96951;-85
2022/06/19 01:02:18;;;;;;;1.15;0.80;;;17.40;83.70;;;16.27;66.09;100458.75;9817439;29;96661;-85
2022/06/19 01:07:22;;;;;;;1.00;0.90;;;17.40;83.80;;;16.27;66.36;100453.41;9847516;29;96636;-86
2022/06/19 01:12:26;;;;;;;0.88;0.60;;;17.30;85.00;;;16.22;66.51;100445.13;9844464;29;96688;-85
2022/06/19 01:17:33;;;;;;;0.90;0.65;;;17.40;85.20;;;16.18;66.67;100451.88;9827680;29;98554;-85
2022/06/19 01:22:57;;;;;;;0.73;0.63;;;17.30;85.20;;;16.15;66.95;100444.25;9863002;29;96480;-85
2022/06/19 01:34:27;;;;;;;1.45;0.80;;;17.10;87.70;;;15.94;67.08;100447.00;9848041;29;96718;-85
2022/06/19 01:39:40;;;;;;;1.20;0.70;;;17.10;88.20;;;15.84;67.38;100438.50;9833694;29;96514;-85
2022/06/19 01:44:45;;;;;;;0.60;0.60;;;17.00;87.50;;;15.78;67.82;100435.59;9835657;29;96830;-84
2022/06/19 01:49:52;;;;;;;1.15;0.70;;;16.90;88.10;;;15.74;68.25;100439.69;9811285;29;98945;-84
2022/06/19 01:55:15;;;;;;;1.50;0.77;;;16.90;89.10;;;15.73;67.94;100440.69;9839809;29;96764;-84
2022/06/19 02:00:23;;;;;;;1.00;0.80;;;16.90;89.10;;;15.72;68.00;100427.50;9815190;29;96763;-83
2022/06/19 02:05:27;;;;;;;1.08;0.68;;;16.90;89.80;;;15.66;68.55;100429.13;9848134;29;96576;-83
2022/06/19 02:10:30;;;;;;;1.30;0.90;;;16.80;90.50;;;15.62;68.90;100432.34;9829355;29;96578;-83
2022/06/19 02:15:35;;;;;;;1.10;1.00;;;16.70;90.90;;;15.52;69.49;100427.31;9837455;29;97602;-84
2022/06/19 02:20:44;;;;;;;0.90;0.63;;;16.60;91.50;;;15.48;69.87;100431.44;9837962;29;96573;-84
2022/06/19 02:25:50;;;;;;;1.70;1.02;;;16.60;92.00;;;15.42;69.89;100433.03;9813559;29;96785;-84
2022/06/19 02:30:54;;;;;;;1.30;0.85;;;16.50;92.10;;;15.36;70.26;100433.81;9841149;29;97088;-84
2022/06/19 02:35:56;;;;;;;0.88;0.68;;;16.50;92.40;;;15.36;70.24;100424.94;9838331;29;96491;-84
2022/06/19 02:41:15;;;;;;;1.90;1.00;;;16.50;92.50;;;15.39;70.52;100427.22;9842010;29;97375;-82
2022/06/19 02:46:18;;;;;;;1.80;0.90;;;16.50;93.30;;;15.36;70.92;100419.59;9834781;29;97125;-83
2022/06/19 02:51:21;;;;;;;1.15;0.90;;;16.50;93.70;;;15.31;71.07;100424.69;9845047;29;96759;-82
2022/06/19 02:56:24;;;;;;;1.20;0.80;;;16.40;94.20;;;15.25;71.31;100405.69;9836999;29;96595;-82
2022/06/19 03:01:27;;;;;;;5.72;2.40;;;16.40;94.50;;;15.23;71.62;100412.25;9818285;29;98381;-84
2022/06/19 03:06:30;;;;;;;1.40;1.00;;;16.40;95.00;;;15.21;72.10;100411.63;9816906;29;96629;-84
2022/06/19 03:11:33;;;;;;;2.72;1.38;;;16.30;95.70;;;15.22;71.65;100402.56;9835540;29;96700;-85
2022/06/19 03:16:37;;;;;;;1.88;0.82;;;16.30;95.30;;;15.18;72.08;100412.84;9837920;29;96625;-84
2022/06/19 03:21:40;;;;;;;1.02;0.75;;;16.30;95.90;;;15.20;72.43;100402.75;9835286;29;96885;-84
2022/06/19 03:26:43;;;;;;;1.02;0.80;;;16.40;96.50;;;15.23;72.66;100401.53;9833528;29;96835;-85
2022/06/19 03:31:46;;;;;;;1.13;0.77;;;16.40;96.90;;;15.26;72.88;100399.31;9840306;29;96860;-84
2022/06/19 03:36:49;;;;;;;1.50;0.90;;;16.40;97.30;;;15.34;72.82;100403.69;9838277;29;96660;-84
2022/06/19 03:41:52;;;;;;;1.25;0.90;;;16.50;97.10;;;15.43;73.26;100401.72;9837873;29;96814;-84
2022/06/19 03:46:55;;;;;;;1.35;0.70;;;16.50;98.10;;;15.50;73.26;100407.94;9842141;29;98270;-84
2022/06/19 03:51:59;;;;;;;1.38;0.95;;;16.60;97.90;;;15.58;73.31;100410.47;9840614;29;97787;-85
2022/06/19 03:57:02;;;;;;;1.30;0.90;;;16.60;98.40;;;15.69;73.15;100399.25;9815021;29;96631;-84
2022/06/19 04:02:08;;;;;;;1.42;1.00;;;16.70;98.40;;;15.82;72.93;100401.19;9831840;29;96540;-83
2022/06/19 04:07:15;;;;;;;1.17;0.90;;;16.80;98.60;;;15.95;73.10;100392.38;9840064;29;96727;-82
2022/06/19 04:12:19;;;;;;;1.33;0.93;;;17.00;98.80;;;16.09;73.22;100388.75;9840168;29;96761;-82
2022/06/19 04:17:22;;;;;;;1.98;0.95;;;17.10;99.00;;;16.22;73.44;100391.50;9847522;29;96578;-82
2022/06/19 04:22:25;;;;;;;1.95;1.00;;;17.20;99.30;;;16.39;73.30;100389.28;9840069;29;96507;-82
2022/06/19 04:27:30;;;;;;;0.68;0.57;;;17.40;99.90;;;16.49;72.10;100387.06;9826921;29;97074;-82
2022/06/19 04:32:33;;;;;;;1.88;1.15;;;17.50;98.60;;;16.65;71.73;100379.66;9818675;29;97595;-82
2022/06/19 04:37:36;;;;;;;1.95;0.95;;;17.60;98.30;;;16.83;71.48;100387.97;9828096;29;96745;-83
2022/06/19 04:42:39;;;;;;;1.55;1.13;;;17.80;98.00;;;17.00;70.94;100393.78;9822231;29;96895;-83
2022/06/19 04:47:42;;;;;;;1.30;0.90;;;18.00;97.80;;;17.17;70.80;100388.84;9814918;29;97548;-82
2022/06/19 04:52:45;;;;;;;0.98;0.73;;;18.20;97.60;;;17.35;70.18;100397.13;9861143;29;96550;-83
2022/06/19 04:57:48;;;;;;;1.17;0.85;;;18.40;97.20;;;17.52;69.47;100398.34;9839541;29;98612;-83
2022/06/19 05:02:51;;;;;;;2.90;0.90;;;18.50;96.70;;;17.66;67.83;100396.47;9826544;29;96803;-83
2022/06/19 05:07:54;;;;;;;1.48;0.85;;;18.60;95.50;;;17.83;67.81;100394.19;9811708;29;96886;-81
2022/06/19 05:12:57;;;;;;;1.33;0.90;;;18.80;95.90;;;18.02;67.11;100400.53;9847366;29;96764;-81
2022/06/19 05:18:01;;;;;;;11.50;5.10;;;19.00;95.30;;;18.21;65.94;100402.34;9843598;29;96695;-81
2022/06/19 05:23:06;;;;;;;1.60;0.95;;;19.20;94.80;;;18.39;64.72;100405.16;9819887;29;97198;-81
2022/06/19 05:28:09;;;;;;;1.50;0.88;;;19.30;94.10;;;18.58;65.19;100402.56;9841081;29;96837;-81
2022/06/19 05:33:12;;;;;;;1.73;0.90;;;19.50;94.20;;;18.80;65.78;100411.19;9847499;29;97228;-81
2022/06/19 05:38:15;;;;;;;1.83;1.08;;;19.70;94.50;;;19.04;66.08;100407.72;9858048;29;97029;-81
2022/06/19 05:43:21;;;;;;;2.97;0.85;;;20.00;94.60;;;19.28;65.60;100408.78;9835530;29;96897;-81
2022/06/19 05:48:25;;;;;;;2.17;1.00;;;20.20;94.20;;;19.45;64.71;100415.25;9835232;29;98067;-80
2022/06/19 05:53:33;;;;;;;4.35;1.13;;;20.40;93.90;;;19.64;63.99;100407.25;9846989;29;96774;-81
2022/06/19 05:58:37;;;;;;;1.73;0.93;;;20.60;93.50;;;19.78;63.45;100406.88;9839310;29;96660;-81
2022/06/19 06:03:42;;;;;;;1.25;0.95;;;20.80;93.20;;;19.94;63.00;100402.78;9818220;29;96731;-81
2022/06/19 06:08:46;;;;;;;1.08;0.82;;;20.90;92.70;;;20.15;62.76;100398.81;9860662;29;96467;-81
2022/06/19 06:13:49;;;;;;;1.55;1.00;;;21.10;92.70;;;20.35;61.90;100400.44;9811539;29;97300;-81
2022/06/19 06:18:52;;;;;;;1.40;1.00;;;21.30;92.30;;;20.54;61.48;100396.69;9837406;29;97545;-81
2022/06/19 06:23:55;;;;;;;3.30;1.23;;;21.50;91.90;;;20.78;59.70;100397.59;9840844;29;98416;-81
2022/06/19 06:29:00;;;;;;;1.58;0.88;;;21.70;91.20;;;20.97;58.54;100396.47;9854143;29;98213;-80
2022/06/19 06:34:04;;;;;;;1.33;0.90;;;21.90;90.50;;;21.19;58.19;100393.25;9842968;29;96749;-81
2022/06/19 06:39:07;;;;;;;1.25;1.00;;;22.10;90.00;;;21.42;58.51;100398.72;9814729;29;98455;-80
2022/06/19 06:44:14;;;;;;;2.17;0.90;;;22.40;89.70;;;21.68;56.17;100399.28;9819685;29;97652;-80
2022/06/19 06:49:17;;;;;;;1.40;1.02;;;22.60;87.50;;;21.90;56.43;100384.94;9831033;29;96872;-80
2022/06/19 06:54:20;;;;;;;1.30;0.90;;;22.80;87.50;;;22.18;56.09;100388.75;9842530;29;97122;-80
2022/06/19 06:59:23;;;;;;;0.93;0.70;;;23.10;86.70;;;22.42;55.03;100392.22;9844974;29;96671;-80
2022/06/19 07:04:26;;;;;;;1.83;0.95;;;23.40;85.70;;;22.67;55.45;100386.47;9857339;29;97471;-80
2022/06/19 07:09:29;;;;;;;1.20;0.77;;;23.60;85.20;;;22.92;54.69;100386.16;9852519;29;96880;-80
2022/06/19 07:14:32;;;;;;;1.20;0.80;;;23.80;84.50;;;23.18;54.69;100380.06;9843452;29;100025;-80
2022/06/19 07:19:35;;;;;;;1.70;0.90;;;24.10;84.10;;;23.44;54.32;100384.00;9823804;29;96873;-82
2022/06/19 07:24:38;;;;;;;2.28;1.30;;;24.30;83.10;;;23.73;53.96;100378.47;9820440;29;96779;-83
2022/06/19 07:29:44;;;;;;;1.52;0.95;;;24.60;82.60;;;24.05;53.40;100378.66;9826199;29;96950;-82
2022/06/19 07:34:47;;;;;;;1.50;1.17;;;24.90;81.90;;;24.33;52.80;100364.03;9839614;29;96814;-84
2022/06/19 07:39:50;;;;;;;2.03;1.20;;;25.20;80.90;;;24.57;51.25;100359.16;9826900;29;96937;-82
2022/06/19 07:44:53;;;;;;;2.97;1.60;;;25.40;79.40;;;24.83;50.01;100358.34;9825148;29;97538;-79
2022/06/19 07:50:11;;;;;;;1.45;1.10;;;25.70;77.80;;;25.02;48.22;100347.06;9861465;29;97531;-80
2022/06/19 07:55:28;;;;;;;2.33;1.50;;;25.90;75.70;;;25.23;46.72;100340.72;9827871;29;97484;-80
2022/06/19 08:00:35;;;;;;;1.45;1.05;;;26.10;73.70;;;25.46;46.32;100331.38;9812706;29;98681;-80
2022/06/19 08:05:39;;;;;;;2.80;1.00;;;26.30;73.00;;;25.74;43.24;100332.91;9863458;29;96925;-81
2022/06/19 08:10:45;;;;;;;1.10;0.90;;;26.60;69.30;;;25.89;39.78;100326.72;9812113;29;97660;-81
2022/06/19 08:15:53;;;;;;;1.50;0.90;;;26.80;66.00;;;26.01;39.28;100312.88;9830605;29;96562;-82
2022/06/19 08:20:55;;;;;;;1.15;0.70;;;26.90;63.60;;;26.11;38.59;100299.28;9845394;29;96701;-81
2022/06/19 08:26:00;;;;;;;2.25;0.70;;;27.00;59.60;;;26.26;38.17;100303.94;9839233;29;97172;-81
2022/06/19 08:31:05;;;;;;;0.90;0.80;;;27.10;60.30;;;26.41;37.01;100302.13;9830276;29;98138;-81
2022/06/19 08:36:11;;;;;;;1.70;0.90;;;27.30;57.70;;;26.53;36.21;100304.59;9825567;29;96689;-80
2022/06/19 08:42:11;;;;;;;1.48;0.80;;;27.50;57.60;;;26.72;36.96;100301.31;9837678;29;97140;-81
2022/06/19 08:47:28;;;;;;;0.88;0.50;;;27.50;57.90;;;26.89;36.36;100297.22;9833877;29;97474;-81
2022/06/19 08:52:59;;;;;;;1.80;0.93;;;27.70;57.10;;;27.01;35.07;100296.94;9862618;29;96616;-81
2022/06/19 08:58:24;;;;;;;1.10;0.60;;;27.90;54.70;;;27.12;34.72;100305.97;9856414;29;98929;-81
2022/06/19 09:09:37;;;;;;;0.90;0.68;;;28.20;55.90;;;27.47;34.91;100296.91;9834700;29;97235;-81
2022/06/19 09:15:15;;;;;;;1.50;0.88;;;28.30;54.50;;;27.54;33.79;100289.22;9798820;29;97096;-81
2022/06/19 09:20:46;;;;;;;1.20;1.10;;;28.50;52.70;;;27.61;34.25;100278.81;9834231;29;96770;-81
2022/06/19 09:26:08;;;;;;;1.88;1.02;;;28.50;53.20;;;27.81;35.71;100272.50;9853509;29;96686;-81
2022/06/19 09:31:28;;;;;;;1.95;1.15;;;28.70;54.00;;;27.95;33.56;100279.00;9831242;29;97533;-82
2022/06/19 09:36:42;;;;;;;1.50;1.02;;;28.90;52.80;;;28.09;33.23;100276.44;9814756;29;1339654;-82
2022/06/19 09:42:16;;;;;;;2.35;1.25;;;29.00;51.90;;;28.19;33.69;100270.13;9835377;29;97721;-82
2022/06/19 09:47:28;;;;;;;2.50;1.45;;;29.10;52.20;;;28.33;32.56;100271.13;9857160;29;97848;-82
2022/06/19 09:52:47;;;;;;;2.15;1.50;;;29.30;51.50;;;28.41;32.53;100273.25;9832183;29;96740;-82
2022/06/19 09:58:12;;;;;;;1.73;1.27;;;29.40;51.00;;;28.51;31.68;100245.84;9845611;29;96563;-82
2022/06/19 10:03:41;;;;;;;1.52;1.08;;;29.50;49.30;;;28.59;31.57;100241.69;9836628;29;96976;-82
2022/06/19 10:09:26;;;;;;;1.73;1.10;;;29.60;49.70;;;28.69;31.36;100233.41;9818943;29;97028;-81
2022/06/19 10:14:47;;;;;;;1.85;1.02;;;29.70;49.20;;;28.87;31.49;100239.25;9813270;29;96888;-80
2022/06/19 10:20:18;;;;;;;2.10;1.20;;;29.80;48.60;;;28.93;31.41;100233.47;9840744;29;96816;-81
2022/06/19 10:25:35;;;;;;;2.20;1.38;;;29.90;49.20;;;29.08;31.66;100229.75;9826249;29;97606;-80
2022/06/19 10:31:11;;;;;;;1.42;0.88;;;30.00;49.40;;;29.12;31.78;100214.41;9865172;29;96583;-81
2022/06/19 10:36:32;;;;;;;1.98;0.90;;;30.10;49.30;;;29.33;31.87;100210.31;9816119;29;96816;-81
2022/06/19 10:42:51;;;;;;;1.90;1.17;;;30.20;49.50;;;29.37;30.15;100207.00;9815889;29;96939;-82
2022/06/19 10:48:22;;;;;;;2.97;1.52;;;30.30;48.20;;;29.53;31.18;100194.78;9788430;29;97668;-81
2022/06/19 10:54:12;;;;;;;3.58;1.80;;;30.50;48.60;;;29.74;31.28;100196.13;9846223;29;96863;-81
2022/06/19 10:59:15;;;;;;;2.50;1.70;;;30.60;48.80;;;29.90;29.85;100188.50;9846165;29;98447;-81
2022/06/19 11:04:23;;;;;;;3.15;1.70;;;30.80;47.80;;;29.94;30.41;100178.59;9843529;29;97721;-82
2022/06/19 11:09:54;;;;;;;3.13;1.70;;;30.90;47.50;;;30.02;29.97;100177.91;9827973;29;97628;-80
2022/06/19 11:15:04;;;;;;;3.13;1.40;;;31.00;46.90;;;30.11;28.95;100173.44;9836521;29;97507;-82
2022/06/19 11:20:24;;;;;;;4.03;1.48;;;31.10;46.80;;;30.15;29.58;100167.34;9832304;29;96717;-82
2022/06/19 11:25:35;;;;;;;1.80;1.00;;;31.20;46.70;;;30.35;29.11;100169.75;9855653;29;96590;-81
2022/06/19 11:30:47;;;;;;;2.67;1.13;;;31.30;46.90;;;30.44;28.54;100156.97;9822116;29;97065;-80
2022/06/19 11:35:56;;;;;;;1.42;1.10;;;31.50;46.10;;;30.56;28.56;100151.81;9834097;29;96724;-80
2022/06/19 11:40:59;;;;;;;1.73;1.00;;;31.60;46.20;;;30.59;28.02;100145.75;9824985;29;96707;-82
2022/06/19 11:46:26;;;;;;;1.33;0.88;;;31.70;45.50;;;30.77;29.85;100138.59;9831213;29;97793;-84
2022/06/19 11:51:30;;;;;;;1.10;0.90;;;31.80;46.70;;;30.98;28.71;100144.47;9831326;29;98826;-84
2022/06/19 11:56:38;;;;;;;1.50;1.10;;;32.00;45.80;;;31.20;28.44;100151.19;9819516;29;97248;-82
2022/06/19 12:01:44;;;;;;;1.38;1.00;;;32.20;45.90;;;31.33;27.41;100136.66;9834919;29;98304;-83
2022/06/19 12:06:53;;;;;;;1.15;0.80;;;32.40;45.30;;;31.39;27.62;100124.44;9840892;29;96731;-83
2022/06/19 12:12:11;;;;;;;3.30;0.70;;;32.40;44.90;;;31.52;26.94;100112.59;9859408;29;96866;-83
2022/06/19 12:17:32;;;;;;;1.17;0.70;;;32.50;43.70;;;31.59;26.59;100115.72;9848073;29;97206;-82
2022/06/19 12:22:52;;;;;;;1.08;0.70;;;32.60;44.20;;;31.65;26.35;100102.69;9857304;29;97302;-84
2022/06/19 12:28:12;;;;;;;0.88;0.60;;;32.70;43.60;;;31.61;26.77;100088.78;9850308;29;96738;-82
2022/06/19 12:33:28;;;;;;;1.42;0.77;;;32.70;43.70;;;31.74;26.48;100086.28;9854398;29;97038;-83
2022/06/19 12:38:36;;;;;;;0.77;0.60;;;32.80;43.70;;;31.83;25.68;100084.44;9841506;29;98547;-83
2022/06/19 12:43:59;;;;;;;1.40;0.73;;;32.90;43.20;;;31.84;25.49;100083.31;9842678;29;96954;-84
2022/06/19 12:49:38;;;;;;;1.60;0.70;;;33.00;42.80;;;32.04;25.61;100080.06;9855649;29;98521;-83
2022/06/19 12:54:41;;;;;;;0.77;0.63;;;33.00;43.20;;;32.03;24.97;100072.13;9847104;29;97000;-82
2022/06/19 13:00:18;;;;;;;0.80;0.50;;;33.10;42.20;;;32.15;25.36;100066.88;9839744;29;97423;-84
2022/06/19 13:05:55;;;;;;;1.02;0.70;;;33.20;43.20;;;32.34;25.60;100058.44;9834566;29;96705;-82
2022/06/19 13:11:14;;;;;;;0.98;0.65;;;33.30;42.40;;;32.37;24.95;100052.28;9830917;29;96605;-83
2022/06/19 13:16:46;;;;;;;0.57;0.50;;;33.40;42.00;;;32.49;24.96;100036.81;9821909;29;96700;-83
2022/06/19 13:22:42;;;;;;;1.88;0.68;;;33.50;42.20;;;32.67;23.84;100037.66;9847926;29;96900;-82
2022/06/19 13:28:01;;;;;;;2.42;0.68;;;33.60;40.80;;;32.71;24.11;100041.41;9843291;29;96780;-83
2022/06/19 13:33:37;;;;;;;1.02;0.73;;;33.70;40.80;;;32.83;24.91;100028.97;9859245;29;98379;-83
2022/06/19 13:38:53;;;;;;;0.73;0.70;;;33.80;41.60;;;32.84;24.59;100016.84;9859506;29;96757;-91
2022/06/19 13:44:40;;;;;;;0.55;0.55;;;33.80;41.50;;;33.01;23.82;100016.91;9834875;29;96759;-85
2022/06/19 13:49:55;;;;;;;0.70;0.50;;;34.00;41.20;;;32.91;23.38;100014.44;9828189;29;98643;-88
2022/06/19 13:55:05;;;;;;;0.70;0.50;;;33.90;40.80;;;32.81;24.09;100004.53;9810898;29;96525;-87
2022/06/19 14:00:47;;;;;;;0.57;0.52;;;33.80;41.00;;;32.90;24.34;99996.31;9838139;29;98537;-86
2022/06/19 14:05:51;;;;;;;0.90;0.73;;;33.90;41.30;;;32.94;23.90;99980.78;9847969;29;96666;-84
2022/06/19 14:11:17;;;;;;;0.90;0.50;;;34.00;41.00;;;32.88;23.54;99982.09;9819237;29;97665;-87
2022/06/19 14:17:06;;;;;;;0.80;0.40;;;33.80;39.50;;;32.95;23.78;99971.41;9814862;29;96951;-90
2022/06/19 14:22:20;;;;;;;1.23;0.70;;;33.90;40.80;;;32.94;24.88;99967.84;9841448;29;98559;-88
2022/06/19 14:27:54;;;;;;;1.50;0.60;;;33.80;41.40;;;33.04;24.00;99961.19;9845423;29;96573;-89
2022/06/19 14:33:01;;;;;;;0.75;0.50;;;34.00;41.40;;;33.19;24.06;99948.91;9843308;29;96813;-89
2022/06/19 14:38:05;;;;;;;0.60;0.50;;;34.10;41.20;;;33.16;24.05;99955.03;9837551;29;96721;-90
2022/06/19 14:43:17;;;;;;;0.98;0.60;;;34.10;40.90;;;33.18;23.42;99945.34;9849736;29;97248;-90
2022/06/19 14:48:48;;;;;;;0.65;0.57;;;34.10;40.60;;;33.21;24.13;99939.16;9834565;29;96563;-88
2022/06/19 14:54:31;;;;;;;0.47;0.40;;;34.10;40.90;;;33.34;23.69;99928.28;9845320;29;96662;-88
2022/06/19 14:59:49;;;;;;;1.10;0.50;;;34.20;40.70;;;33.26;24.17;99925.22;9827464;29;98285;-88
2022/06/19 15:05:20;;;;;;;1.25;0.75;;;34.20;40.80;;;33.20;24.06;99920.22;9826332;29;97335;-87
2022/06/19 15:10:29;;;;;;;1.63;0.60;;;34.10;40.60;;;33.24;23.74;99907.44;9847701;29;96773;-89
2022/06/19 15:15:37;;;;;;;1.35;0.50;;;34.20;40.70;;;33.27;23.95;99917.78;9832596;29;98089;-95
2022/06/19 15:21:05;;;;;;;1.63;1.20;;;34.20;40.50;;;33.23;24.29;99911.31;9817362;29;96643;-89
2022/06/19 15:26:21;;;;;;;0.80;0.50;;;34.20;40.60;;;33.26;24.51;99903.22;9828601;29;98561;-89
2022/06/19 15:32:12;;;;;;;1.08;0.60;;;34.10;41.00;;;33.34;24.11;99887.00;9846801;29;98928;-90
2022/06/19 15:37:52;;;;;;;4.47;0.68;;;34.20;41.00;;;33.38;24.20;99879.69;9812788;29;96729;-89
2022/06/19 15:43:17;;;;;;;2.92;0.60;;;34.20;41.00;;;33.34;24.32;99876.78;9825860;29;97561;-89
2022/06/19 15:48:22;;;;;;;0.98;0.70;;;34.30;41.20;;;33.33;24.61;99860.59;9839710;29;97492;-88
2022/06/19 15:53:32;;;;;;;1.48;0.60;;;34.30;41.10;;;33.17;24.20;99852.06;9810965;29;96627;-88
2022/06/19 15:58:45;;;;;;;0.82;0.50;;;34.10;40.80;;;32.97;24.67;99859.03;9854074;29;96796;-88
2022/06/19 16:03:53;;;;;;;1.05;0.63;;;33.90;40.90;;;32.77;25.22;99852.22;9826805;29;96599;-87
2022/06/19 16:09:13;;;;;;;1.10;0.80;;;33.70;41.20;;;32.66;24.89;99846.25;9831864;29;97334;-87
2022/06/19 16:14:28;;;;;;;1.00;0.70;;;33.60;41.30;;;32.52;25.39;99848.34;9830532;29;97078;-89
2022/06/19 16:19:33;;;;;;;0.82;0.50;;;33.50;41.70;;;32.37;25.69;99846.06;9825665;29;97214;-87
2022/06/19 16:24:48;;;;;;;2.03;1.00;;;33.30;41.90;;;32.23;26.68;99846.97;9854426;29;96753;-86
2022/06/19 16:29:57;;;;;;;0.77;0.60;;;33.20;42.60;;;31.99;28.59;99852.09;9825557;29;97786;-88
2022/06/19 16:46:03;;;;;;;1.00;0.90;;;32.50;44.00;;;31.44;29.55;99838.75;9839651;29;96589;-87
2022/06/19 16:51:17;;;;;;;2.38;0.85;;;32.40;45.10;;;31.34;29.54;99842.56;9851000;29;96740;-85
2022/06/19 16:56:33;;;;;;;1.48;0.90;;;32.20;45.20;;;31.25;30.14;99827.19;9863084;29;96855;-86
2022/06/19 17:01:43;;;;;;;1.60;0.85;;;32.10;45.60;;;31.12;28.63;99839.81;9819457;29;97049;-88
2022/06/19 17:06:51;;;;;;;1.27;0.80;;;32.00;44.70;;;30.96;28.89;99833.94;9840616;29;96569;-87
2022/06/19 17:12:25;;;;;;;1.38;0.95;;;31.90;44.80;;;30.87;29.65;99820.13;9843980;29;96874;-87
2022/06/19 17:17:39;;;;;;;2.08;0.90;;;31.80;45.30;;;30.72;28.27;99826.00;9840647;29;96654;-88
2022/06/19 17:22:56;;;;;;;0.68;0.57;;;31.70;44.60;;;30.49;28.49;99819.66;9819714;29;96685;-89
2022/06/19 17:28:10;;;;;;;1.35;0.70;;;31.50;44.40;;;30.24;29.05;99818.31;9838333;29;98576;-88
2022/06/19 17:33:37;;;;;;;3.08;0.70;;;31.30;44.40;;;30.01;29.16;99827.53;9837215;29;99844;-87
2022/06/19 17:39:00;;;;;;;1.38;0.80;;;31.00;44.70;;;29.80;30.43;99827.13;9858099;29;97416;-86
2022/06/19 17:44:36;;;;;;;1.10;0.77;;;30.80;45.30;;;29.55;30.56;99821.03;9816070;29;96650;-88
2022/06/19 17:49:51;;;;;;;4.13;0.70;;;30.60;45.60;;;29.30;30.38;99805.88;9836630;29;97438;-86
2022/06/19 17:54:55;;;;;;;1.15;0.70;;;30.30;45.40;;;29.05;30.81;99817.28;9847936;29;98032;-86
2022/06/19 18:00:24;;;;;;;0.68;0.57;;;30.10;45.60;;;28.80;31.45;99810.28;9844425;29;97444;-87
2022/06/19 18:05:48;;;;;;;0.80;0.60;;;29.80;46.00;;;28.56;31.96;99810.38;9842399;29;96608;-89
2022/06/19 18:10:54;;;;;;;0.95;0.70;;;29.60;46.40;;;28.30;32.63;99823.53;9830952;29;96841;-86
2022/06/19 18:21:42;;;;;;;1.17;0.75;;;29.10;47.30;;;27.78;33.77;99819.84;9815993;29;96810;-88
2022/06/19 18:27:13;;;;;;;1.48;0.60;;;28.90;47.90;;;27.46;34.14;99821.22;9851460;29;96636;-89
2022/06/19 18:32:30;;;;;;;3.40;0.77;;;28.60;48.30;;;27.13;34.89;99817.47;9849772;29;97689;-88
2022/06/19 18:37:33;;;;;;;0.73;0.70;;;28.20;48.60;;;26.79;35.80;99833.81;9839154;29;97585;-88
2022/06/19 18:42:56;;;;;;;0.60;0.60;;;27.90;49.30;;;26.42;36.66;99835.13;9833148;29;96767;-88
2022/06/19 18:48:00;;;;;;;1.42;1.00;;;27.50;50.00;;;26.07;38.51;99838.00;9838080;29;96669;-88
2022/06/19 18:53:05;;;;;;;1.75;0.95;;;27.10;51.70;;;25.73;39.53;99829.66;9831145;29;96663;-86
2022/06/19 18:58:18;;;;;;;1.60;0.88;;;26.70;52.40;;;25.38;40.15;99834.09;9827569;29;96623;-86
2022/06/19 19:03:23;;;;;;;1.63;1.00;;;26.40;53.80;;;25.09;41.10;99839.28;9844744;29;96767;-85
2022/06/19 19:08:36;;;;;;;3.08;1.00;;;26.10;54.40;;;24.81;41.52;99848.75;9840506;29;96930;-86
2022/06/19 19:13:42;;;;;;;1.75;0.65;;;25.80;54.60;;;24.56;41.41;99846.81;9824115;29;97453;-86
2022/06/19 19:18:46;;;;;;;1.05;0.73;;;25.50;54.20;;;24.36;41.62;99860.34;9841192;29;96788;-86
2022/06/19 19:23:49;;;;;;;1.73;0.88;;;25.30;54.90;;;24.12;42.52;99847.22;9840002;29;98128;-86
2022/06/19 19:28:57;;;;;;;1.38;0.80;;;25.10;55.30;;;23.93;43.05;99851.44;9860826;29;96702;-86
2022/06/19 19:34:03;;;;;;;1.25;0.80;;;24.90;55.50;;;23.77;43.19;99870.38;9810019;29;96593;-85
2022/06/19 19:39:10;;;;;;;0.98;0.60;;;24.80;55.70;;;23.62;43.90;99859.41;9849435;29;97976;-85
2022/06/19 19:44:14;;;;;;;1.55;0.90;;;24.60;56.30;;;23.40;44.16;99856.00;9847797;29;97079;-85
2022/06/19 19:49:23;;;;;;;1.85;0.70;;;24.40;56.60;;;23.21;45.38;99859.13;9819276;29;96763;-88
2022/06/19 19:54:30;;;;;;;1.97;0.73;;;24.20;58.00;;;22.99;44.84;99860.28;9835464;29;96701;-91
2022/06/19 19:59:33;;;;;;;3.28;1.08;;;24.00;57.30;;;22.78;46.48;99860.03;9828344;29;99312;-93
2022/06/19 20:04:37;;;;;;;1.63;0.70;;;23.80;58.90;;;22.59;46.78;99856.88;9843996;29;97432;-93
2022/06/19 20:15:03;;;;;;;1.23;0.57;;;23.40;59.30;;;22.28;46.78;99863.03;9843050;29;97009;-88
2022/06/19 20:20:08;;;;;;;1.80;0.88;;;23.20;58.80;;;22.15;47.17;99859.66;9841882;29;96769;-90
2022/06/19 20:25:36;;;;;;;1.48;0.82;;;23.10;59.60;;;21.98;47.57;99861.56;9835616;29;98193;-89
2022/06/19 20:30:46;;;;;;;0.95;0.68;;;23.00;59.90;;;21.82;48.18;99868.63;9818724;29;97321;-88
2022/06/19 20:35:49;;;;;;;2.77;1.10;;;22.80;59.90;;;21.67;48.63;99857.63;9834300;29;96898;-88
2022/06/19 20:40:55;;;;;;;2.17;1.00;;;22.70;60.40;;;21.51;48.86;99867.38;9835139;29;98552;-88
2022/06/19 20:45:57;;;;;;;2.45;1.33;;;22.60;60.70;;;21.34;49.54;99861.16;9850610;29;96748;-88
2022/06/19 20:51:01;;;;;;;1.35;1.05;;;22.40;61.60;;;21.17;49.82;99861.16;9847431;29;96594;-87
2022/06/19 20:56:04;;;;;;;2.10;1.02;;;22.20;61.70;;;21.03;51.17;99862.53;9839198;29;98478;-87
2022/06/19 21:01:07;;;;;;;2.03;0.90;;;22.10;63.60;;;20.87;52.27;99853.38;9849459;29;97436;-87
2022/06/19 21:06:13;;;;;;;1.35;0.85;;;21.90;63.70;;;20.76;52.80;99862.34;9851972;29;98549;-87
2022/06/19 21:11:17;;;;;;;1.65;1.15;;;21.80;65.90;;;20.66;53.18;99871.06;9842212;29;96764;-87
2022/06/19 21:16:23;;;;;;;1.63;0.90;;;21.70;65.20;;;20.55;52.89;99864.66;9819481;29;96600;-87
2022/06/19 21:21:30;;;;;;;1.55;1.00;;;21.60;64.70;;;20.41;54.38;99865.97;9845191;29;98318;-88
2022/06/19 21:26:33;;;;;;;1.45;1.00;;;21.40;67.60;;;20.24;54.97;99860.53;9838660;29;96577;-86
2022/06/19 21:31:36;;;;;;;0.90;0.82;;;21.30;66.60;;;20.07;55.83;99862.31;9854496;29;96796;-86
2022/06/19 21:36:42;;;;;;;1.90;1.10;;;21.10;67.70;;;19.90;56.13;99859.53;9863938;29;96545;-86
2022/06/19 21:41:51;;;;;;;2.20;0.90;;;21.00;68.30;;;19.78;56.29;99858.72;9862435;29;96629;-86
2022/06/19 21:46:54;;;;;;;1.30;0.90;;;20.80;67.70;;;19.72;56.21;99862.38;9828859;29;99324;-86
2022/06/19 21:51:59;;;;;;;1.65;0.93;;;20.80;68.50;;;19.59;56.56;99876.09;9847364;29;96640;-86
2022/06/19 21:57:02;;;;;;;1.67;1.08;;;20.60;69.00;;;19.49;56.73;99869.41;9846541;29;96606;-86
2022/06/19 22:02:05;;;;;;;1.40;0.95;;;20.50;70.10;;;19.40;57.29;99859.19;9824225;29;96670;-86
2022/06/19 22:07:12;;;;;;;0.88;0.70;;;20.50;70.30;;;19.25;58.09;99859.63;9843410;29;96556;-86
2022/06/19 22:12:19;;;;;;;1.00;0.85;;;20.30;69.90;;;19.11;58.60;99867.13;9837660;29;96739;-87
2022/06/19 22:17:42;;;;;;;1.90;1.00;;;20.20;71.30;;;19.02;59.69;99859.63;9838512;29;96614;-86